createdAt,value
2022-12-17T00:01:00.804Z,101851.41
2022-12-17T00:03:46.231Z,101851.41
2022-12-17T00:06:32.927Z,101848.72
2022-12-17T00:09:17.967Z,101842.47
2022-12-17T00:12:03.448Z,101851.41
2022-12-17T00:14:48.896Z,101858.59
2022-12-17T00:17:48.706Z,101858.59
2022-12-17T00:20:34.268Z,101859.47
2022-12-17T00:23:21.420Z,101862.16
2022-12-17T00:26:05.304Z,101863.97
2022-12-17T00:28:50.373Z,101862.16
2022-12-17T00:31:35.659Z,101872.91
2022-12-17T00:34:20.995Z,101873.81
2022-12-17T00:37:06.245Z,101871.13
2022-12-17T00:39:57.690Z,101876.50
2022-12-17T00:42:46.427Z,101873.84
2022-12-17T00:45:31.809Z,101887.28
2022-12-17T00:48:17.118Z,101878.31
2022-12-17T00:51:02.311Z,101875.66
2022-12-17T00:53:47.474Z,101880.16
2022-12-17T00:56:34.178Z,101880.16
2022-12-17T00:59:19.224Z,101885.56
2022-12-17T01:02:04.736Z,101890.94
2022-12-17T01:04:50.657Z,101885.56
2022-12-17T01:07:35.814Z,101890.94
2022-12-17T01:10:21.232Z,101892.72
2022-12-17T01:13:08.751Z,101887.34
2022-12-17T01:15:55.112Z,101889.16
2022-12-17T01:18:42.067Z,101903.47
2022-12-17T01:21:27.335Z,101903.53
2022-12-17T01:24:13.085Z,101907.13
2022-12-17T01:26:58.376Z,101912.50
2022-12-17T01:29:44.925Z,101906.25
2022-12-17T01:32:30.165Z,101901.78
2022-12-17T01:35:15.661Z,101911.59
2022-12-17T01:38:01.046Z,101902.66
2022-12-17T01:40:46.407Z,101915.19
2022-12-17T01:43:34.652Z,101911.59
2022-12-17T01:46:21.853Z,101917.88
2022-12-17T01:49:07.549Z,101921.41
2022-12-17T01:51:52.806Z,101923.19
2022-12-17T01:54:38.115Z,101929.47
2022-12-17T01:57:24.952Z,101926.78
2022-12-17T02:00:14.935Z,101930.34
2022-12-17T02:03:02.207Z,101933.91
2022-12-17T02:05:51.085Z,101930.31
2022-12-17T02:08:40.932Z,101935.69
2022-12-17T02:11:32.992Z,101936.56
2022-12-17T02:14:26.252Z,101937.47
2022-12-17T02:17:15.667Z,101939.25
2022-12-17T02:20:06.360Z,101943.75
2022-12-17T02:22:56.881Z,101933.88
2022-12-17T02:25:48.092Z,101933.91
2022-12-17T02:28:34.821Z,101932.09
2022-12-17T02:31:21.099Z,101933.00
2022-12-17T02:34:07.340Z,101939.25
2022-12-17T02:36:53.204Z,101942.81
2022-12-17T02:39:39.546Z,101943.72
2022-12-17T02:42:25.996Z,101950.88
2022-12-17T02:45:14.664Z,101959.84
2022-12-17T02:48:01.279Z,101958.03
2022-12-17T02:50:46.892Z,101959.81
2022-12-17T02:53:33.687Z,101964.28
2022-12-17T02:56:19.593Z,101955.34
2022-12-17T02:59:04.610Z,101958.00
2022-12-17T03:01:52.528Z,101965.19
2022-12-17T03:04:38.168Z,101966.06
2022-12-17T03:07:24.820Z,101955.34
2022-12-17T03:10:10.199Z,101958.03
2022-12-17T03:13:00.293Z,101967.88
2022-12-17T03:15:57.060Z,101967.91
2022-12-17T03:18:43.765Z,101968.78
2022-12-17T03:21:29.063Z,101967.00
2022-12-17T03:24:14.189Z,101964.31
2022-12-17T03:26:59.523Z,101961.63
2022-12-17T03:29:44.487Z,101969.69
2022-12-17T03:32:29.869Z,101972.38
2022-12-17T03:35:16.317Z,101971.50
2022-12-17T03:38:01.836Z,101977.78
2022-12-17T03:40:46.990Z,101973.31
2022-12-17T03:43:32.681Z,101976.91
2022-12-17T03:46:18.315Z,101977.78
2022-12-17T03:49:03.362Z,101978.69
2022-12-17T03:51:50.032Z,101978.69
2022-12-17T03:54:35.484Z,101975.09
2022-12-17T03:57:20.770Z,101978.69
2022-12-17T04:00:06.108Z,101981.38
2022-12-17T04:02:57.182Z,101979.63
2022-12-17T04:05:42.678Z,101986.75
2022-12-17T04:08:29.096Z,101981.38
2022-12-17T04:11:14.493Z,101979.59
2022-12-17T04:14:10.950Z,101978.69
2022-12-17T04:16:55.911Z,101983.16
2022-12-17T04:19:41.227Z,101988.53
2022-12-17T04:22:26.628Z,101995.69
2022-12-17T04:25:13.218Z,101997.50
2022-12-17T04:27:58.526Z,102002.88
2022-12-17T04:30:43.834Z,101998.41
2022-12-17T04:33:29.360Z,102001.94
2022-12-17T04:36:14.841Z,102004.66
2022-12-17T04:39:00.026Z,102009.16
2022-12-17T04:41:46.904Z,102011.84
2022-12-17T04:44:43.724Z,102028.84
2022-12-17T04:47:29.087Z,102017.22
2022-12-17T04:50:14.611Z,102023.47
2022-12-17T04:52:59.992Z,102023.47
2022-12-17T04:55:45.148Z,102030.66
2022-12-17T04:58:32.013Z,102035.16
2022-12-17T05:01:17.989Z,102035.16
2022-12-17T05:04:03.223Z,102031.56
2022-12-17T05:06:48.692Z,102035.16
2022-12-17T05:09:33.639Z,102036.06
2022-12-17T05:12:18.824Z,102027.09
2022-12-17T05:15:05.469Z,102032.44
2022-12-17T05:17:50.503Z,102035.16
2022-12-17T05:20:35.863Z,102034.22
2022-12-17T05:23:24.799Z,102038.72
2022-12-17T05:26:14.603Z,102042.31
2022-12-17T05:29:00.966Z,102046.78
2022-12-17T05:31:47.560Z,102045.88
2022-12-17T05:34:32.918Z,102044.09
2022-12-17T05:37:18.163Z,102048.59
2022-12-17T05:40:07.824Z,102042.31
2022-12-17T05:42:55.983Z,102049.50
2022-12-17T05:45:41.005Z,102047.72
2022-12-17T05:48:32.604Z,102047.72
2022-12-17T05:51:17.814Z,102054.94
2022-12-17T05:54:02.650Z,102056.72
2022-12-17T05:56:47.932Z,102055.84
2022-12-17T05:59:33.082Z,102057.66
2022-12-17T06:02:18.582Z,102072.84
2022-12-17T06:05:05.675Z,102073.75
2022-12-17T06:07:50.888Z,102077.38
2022-12-17T06:10:35.980Z,102075.56
2022-12-17T06:13:21.034Z,102079.16
2022-12-17T06:16:07.346Z,102081.84
2022-12-17T06:18:52.754Z,102081.88
2022-12-17T06:21:39.794Z,102094.44
2022-12-17T06:24:25.209Z,102088.19
2022-12-17T06:27:11.006Z,102085.56
2022-12-17T06:29:56.185Z,102090.06
2022-12-17T06:32:41.931Z,102094.59
2022-12-17T06:35:27.124Z,102099.09
2022-12-17T06:38:17.980Z,102095.59
2022-12-17T06:41:03.533Z,102108.19
2022-12-17T06:43:48.786Z,102108.28
2022-12-17T06:46:34.311Z,102105.59
2022-12-17T06:49:19.927Z,102104.78
2022-12-17T06:52:05.207Z,102115.53
2022-12-17T06:54:51.691Z,102120.06
2022-12-17T06:57:36.512Z,102121.00
2022-12-17T07:00:26.681Z,102122.81
2022-12-17T07:03:14.908Z,102120.16
2022-12-17T07:12:08.204Z,102124.72
2022-12-17T07:15:01.798Z,102139.94
2022-12-17T07:17:46.852Z,102138.16
2022-12-17T07:23:31.273Z,102165.91
2022-12-17T07:26:16.647Z,102166.81
2022-12-17T07:29:05.423Z,102162.38
2022-12-17T07:31:50.663Z,102166.88
2022-12-17T07:34:36.013Z,102168.72
2022-12-17T07:37:21.168Z,102165.16
2022-12-17T07:40:06.293Z,102175.03
2022-12-17T07:42:51.629Z,102174.16
2022-12-17T07:45:38.674Z,102176.03
2022-12-17T07:48:23.971Z,102180.53
2022-12-17T07:51:09.326Z,102185.94
2022-12-17T07:53:54.743Z,102193.13
2022-12-17T07:56:39.972Z,102203.00
2022-12-17T07:59:25.378Z,102203.91
2022-12-17T08:02:12.727Z,102212.88
2022-12-17T08:04:57.863Z,102212.00
2022-12-17T08:07:43.653Z,102211.09
2022-12-17T08:10:28.883Z,102220.06
2022-12-17T08:13:15.256Z,102220.97
2022-12-17T08:16:06.422Z,102215.59
2022-12-17T08:18:52.836Z,102220.13
2022-12-17T08:21:38.043Z,102221.94
2022-12-17T08:24:23.586Z,102217.47
2022-12-17T08:27:08.837Z,102229.13
2022-12-17T08:29:54.188Z,102242.56
2022-12-17T08:32:39.403Z,102235.47
2022-12-17T08:35:26.239Z,102235.50
2022-12-17T08:38:11.617Z,102242.69
2022-12-17T08:40:56.782Z,102245.44
2022-12-17T08:43:42.377Z,102241.84
2022-12-17T08:46:27.751Z,102253.50
2022-12-17T08:49:27.255Z,102244.59
2022-12-17T08:52:13.501Z,102254.50
2022-12-17T08:54:58.532Z,102250.03
2022-12-17T08:57:43.636Z,102257.22
2022-12-17T09:00:29.051Z,102258.13
2022-12-17T09:03:17.325Z,102254.63
2022-12-17T09:06:02.650Z,102267.16
2022-12-17T09:08:49.259Z,102254.66
2022-12-17T09:11:36.548Z,102252.88
2022-12-17T09:14:21.626Z,102243.09
2022-12-17T09:17:06.915Z,102259.22
2022-12-17T09:19:51.895Z,102265.50
2022-12-17T09:22:36.936Z,102270.03
2022-12-17T09:25:24.006Z,102269.16
2022-12-17T09:28:09.219Z,102259.34
2022-12-17T09:30:54.432Z,102262.09
2022-12-17T09:33:40.024Z,102265.69
2022-12-17T09:36:25.145Z,102271.06
2022-12-17T09:39:10.373Z,102265.69
2022-12-17T09:42:00.999Z,102269.28
2022-12-17T09:44:54.566Z,102272.84
2022-12-17T09:47:44.462Z,102286.25
2022-12-17T09:50:31.679Z,102278.22
2022-12-17T09:53:17.826Z,102278.22
2022-12-17T09:56:05.668Z,102288.94
2022-12-17T09:58:53.997Z,102286.25
2022-12-17T10:01:40.112Z,102291.59
2022-12-17T10:04:29.395Z,102288.03
2022-12-17T10:07:14.675Z,102296.94
2022-12-17T10:10:00.327Z,102293.38
2022-12-17T10:12:45.435Z,102299.63
2022-12-17T10:15:34.298Z,102306.72
2022-12-17T10:18:24.201Z,102314.78
2022-12-17T10:21:13.421Z,102302.25
2022-12-17T10:23:58.495Z,102309.41
2022-12-17T10:26:44.722Z,102309.41
2022-12-17T10:29:30.904Z,102310.28
2022-12-17T10:32:19.017Z,102312.09
2022-12-17T10:35:05.908Z,102315.66
2022-12-17T10:37:53.222Z,102317.50
2022-12-17T10:40:41.594Z,102318.41
2022-12-17T10:43:40.604Z,102327.34
2022-12-17T10:46:26.109Z,102323.81
2022-12-17T10:49:22.974Z,102313.06
2022-12-17T10:52:08.728Z,102311.34
2022-12-17T10:54:54.116Z,102314.03
2022-12-17T10:57:42.957Z,102326.56
2022-12-17T11:00:45.710Z,102332.81
2022-12-17T11:03:45.772Z,102328.34
2022-12-17T11:06:38.846Z,102323.00
2022-12-17T11:09:32.996Z,102325.66
2022-12-17T11:12:19.247Z,102334.59
2022-12-17T11:15:08.844Z,102337.28
2022-12-17T11:17:55.046Z,102336.38
2022-12-17T11:20:42.934Z,102338.16
2022-12-17T11:23:33.157Z,102335.50
2022-12-17T11:26:21.348Z,102331.00
2022-12-17T11:29:06.324Z,102333.63
2022-12-17T11:31:57.693Z,102332.75
2022-12-17T11:34:48.241Z,102340.78
2022-12-17T11:37:36.254Z,102340.78
2022-12-17T11:40:32.225Z,102336.31
2022-12-17T11:43:21.609Z,102329.19
2022-12-17T11:46:13.040Z,102325.59
2022-12-17T11:49:03.220Z,102335.41
2022-12-17T11:51:50.537Z,102329.19
2022-12-17T11:54:39.852Z,102313.06
2022-12-17T11:57:32.943Z,102322.00
2022-12-17T12:00:20.330Z,102320.22
2022-12-17T12:03:12.775Z,102318.41
2022-12-17T12:06:02.676Z,102310.34
2022-12-17T12:08:48.621Z,102313.88
2022-12-17T12:11:41.441Z,102303.16
2022-12-17T12:14:35.294Z,102297.84
2022-12-17T12:17:24.619Z,102310.34
2022-12-17T12:20:14.237Z,102305.84
2022-12-17T12:23:03.610Z,102307.66
2022-12-17T12:25:52.799Z,102314.81
2022-12-17T12:28:39.427Z,102308.56
2022-12-17T12:31:38.255Z,102306.72
2022-12-17T12:34:25.803Z,102311.19
2022-12-17T12:37:11.393Z,102303.16
2022-12-17T12:39:59.160Z,102300.47
2022-12-17T12:42:46.513Z,102304.94
2022-12-17T12:45:44.442Z,102302.25
2022-12-17T12:48:37.621Z,102311.16
2022-12-17T12:51:34.246Z,102307.59
2022-12-17T12:54:20.457Z,102302.22
2022-12-17T12:57:05.517Z,102295.91
2022-12-17T12:59:51.854Z,102298.59
2022-12-17T13:02:43.493Z,102294.09
2022-12-17T13:05:35.405Z,102297.63
2022-12-17T13:08:04.010Z,102289.53
2022-12-17T13:10:32.865Z,102291.31
2022-12-17T13:13:07.334Z,102294.84
2022-12-17T13:15:38.068Z,102293.00
2022-12-17T13:18:16.121Z,102278.66
2022-12-17T13:20:45.157Z,102284.00
2022-12-17T13:23:28.769Z,102281.25
2022-12-17T13:26:20.444Z,102279.47
2022-12-17T13:28:59.368Z,102274.06
2022-12-17T13:31:28.110Z,102276.69
2022-12-17T13:33:58.720Z,102272.19
2022-12-17T13:36:31.503Z,102272.19
2022-12-17T13:39:06.134Z,102268.59
2022-12-17T13:41:34.546Z,102265.91
2022-12-17T13:44:03.650Z,102265.00
2022-12-17T13:46:41.067Z,102261.34
2022-12-17T13:49:18.907Z,102272.09
2022-12-17T13:51:48.134Z,102269.41
2022-12-17T13:54:18.020Z,102258.66
2022-12-17T13:56:46.231Z,102259.56
2022-12-17T13:59:18.693Z,102262.25
2022-12-17T14:01:47.063Z,102258.69
2022-12-17T14:04:21.115Z,102259.63
2022-12-17T14:06:50.885Z,102263.19
2022-12-17T14:09:20.002Z,102267.69
2022-12-17T14:12:05.560Z,102262.31
2022-12-17T14:14:34.810Z,102267.63
2022-12-17T14:17:02.877Z,102269.41
2022-12-17T14:19:31.427Z,102268.50
2022-12-17T14:22:01.278Z,102277.44
2022-12-17T14:24:29.872Z,102280.09
2022-12-17T14:26:58.758Z,102285.47
2022-12-17T14:29:27.721Z,102282.75
2022-12-17T14:31:56.477Z,102280.91
2022-12-17T14:34:24.952Z,102276.47
2022-12-17T14:36:57.143Z,102287.19
2022-12-17T14:39:28.728Z,102285.38
2022-12-17T14:42:14.565Z,102279.09
2022-12-17T14:44:50.286Z,102272.84
2022-12-17T14:47:19.735Z,102278.19
2022-12-17T14:49:56.048Z,102274.63
2022-12-17T14:52:27.160Z,102281.78
2022-12-17T14:54:56.376Z,102278.19
2022-12-17T14:57:24.279Z,102278.16
2022-12-17T14:59:52.997Z,102278.13
2022-12-17T15:02:24.164Z,102279.91
2022-12-17T15:04:52.320Z,102286.16
2022-12-17T15:07:23.676Z,102282.56
2022-12-17T15:09:52.711Z,102279.88
2022-12-17T15:12:22.249Z,102279.88
2022-12-17T15:14:49.895Z,102287.03
2022-12-17T15:17:18.329Z,102286.13
2022-12-17T15:19:46.904Z,102285.25
2022-12-17T15:22:17.814Z,102284.38
2022-12-17T15:24:45.886Z,102289.72
2022-12-17T15:27:14.564Z,102277.19
2022-12-17T15:29:43.704Z,102292.41
2022-12-17T15:32:13.887Z,102288.84
2022-12-17T15:34:41.465Z,102294.22
2022-12-17T15:37:09.074Z,102302.25
2022-12-17T15:39:36.694Z,102305.84
2022-12-17T15:42:21.742Z,102298.72
2022-12-17T15:44:50.777Z,102300.56
2022-12-17T15:47:19.012Z,102297.88
2022-12-17T15:49:46.717Z,102301.50
2022-12-17T15:52:15.140Z,102299.69
2022-12-17T15:54:42.823Z,102307.75
2022-12-17T15:57:15.354Z,102305.09
2022-12-17T15:59:45.984Z,102306.94
2022-12-17T16:02:15.185Z,102306.94
2022-12-17T16:04:42.847Z,102310.56
2022-12-17T16:07:10.438Z,102309.66
2022-12-17T16:09:38.129Z,102314.19
2022-12-17T16:12:05.853Z,102308.84
2022-12-17T16:14:33.594Z,102323.16
2022-12-17T16:17:01.221Z,102324.06
2022-12-17T16:19:30.272Z,102324.09
2022-12-17T16:21:57.899Z,102316.03
2022-12-17T16:24:25.562Z,102315.16
2022-12-17T16:26:53.147Z,102321.44
2022-12-17T16:29:20.891Z,102333.09
2022-12-17T16:31:49.919Z,102329.53
2022-12-17T16:34:17.567Z,102331.34
2022-12-17T16:36:49.519Z,102331.34
2022-12-17T16:39:17.968Z,102336.72
2022-12-17T16:41:45.840Z,102336.75
2022-12-17T16:44:13.689Z,102334.06
2022-12-17T16:46:42.344Z,102329.63
2022-12-17T16:49:10.878Z,102336.81
2022-12-17T16:51:38.563Z,102345.75
2022-12-17T16:54:13.085Z,102341.28
2022-12-17T16:56:40.908Z,102334.13
2022-12-17T16:59:09.409Z,102343.09
2022-12-17T17:01:37.870Z,102339.53
2022-12-17T17:04:06.259Z,102346.69
2022-12-17T17:06:34.354Z,102349.41
2022-12-17T17:09:03.983Z,102345.84
2022-12-17T17:11:33.024Z,102344.94
2022-12-17T17:14:00.832Z,102350.31
2022-12-17T17:16:28.868Z,102339.59
2022-12-17T17:18:56.630Z,102336.00
2022-12-17T17:21:28.813Z,102341.38
2022-12-17T17:23:57.920Z,102352.09
2022-12-17T17:26:25.511Z,102344.97
2022-12-17T17:28:54.639Z,102350.34
2022-12-17T17:31:26.675Z,102346.75
2022-12-17T17:34:01.084Z,102346.78
2022-12-17T17:36:29.718Z,102354.88
2022-12-17T17:38:58.629Z,102363.81
2022-12-17T17:41:27.513Z,102362.91
2022-12-17T17:43:57.176Z,102376.34
2022-12-17T17:46:25.424Z,102373.69
2022-12-17T17:48:56.926Z,102363.84
2022-12-17T17:51:51.942Z,102356.69
2022-12-17T17:54:14.450Z,102366.53
2022-12-17T17:56:42.707Z,102363.84
2022-12-17T17:59:13.487Z,102363.84
2022-12-17T18:01:42.611Z,102362.97
2022-12-17T18:04:11.876Z,102356.75
2022-12-17T18:06:45.658Z,102363.91
2022-12-17T18:09:21.026Z,102362.13
2022-12-17T18:11:48.619Z,102361.22
2022-12-17T18:14:18.160Z,102363.91
2022-12-17T18:16:47.381Z,102363.03
2022-12-17T18:19:16.431Z,102362.13
2022-12-17T18:21:44.265Z,102357.66
2022-12-17T18:24:13.094Z,102360.38
2022-12-17T18:26:42.604Z,102363.03
2022-12-17T18:29:11.367Z,102372.00
2022-12-17T18:31:40.388Z,102367.53
2022-12-17T18:34:08.834Z,102365.75
2022-12-17T18:36:38.266Z,102358.63
2022-12-17T18:39:07.355Z,102369.38
2022-12-17T18:41:53.089Z,102362.22
2022-12-17T18:44:21.106Z,102365.81
2022-12-17T18:46:50.220Z,102374.75
2022-12-17T18:49:18.824Z,102369.41
2022-12-17T18:51:47.563Z,102371.19
2022-12-17T18:54:16.318Z,102373.91
2022-12-17T18:57:01.261Z,102380.16
2022-12-17T18:59:30.217Z,102383.75
2022-12-17T19:02:00.775Z,102386.44
2022-12-17T19:04:28.607Z,102385.53
2022-12-17T19:06:56.261Z,102389.13
2022-12-17T19:09:25.416Z,102394.50
2022-12-17T19:11:53.567Z,102396.28
2022-12-17T19:14:22.670Z,102388.22
2022-12-17T19:16:51.083Z,102396.28
2022-12-17T19:19:20.441Z,102390.94
2022-12-17T19:21:48.636Z,102401.63
2022-12-17T19:24:17.394Z,102393.59
2022-12-17T19:26:45.570Z,102393.59
2022-12-17T19:29:13.930Z,102384.66
2022-12-17T19:31:41.641Z,102386.44
2022-12-17T19:34:12.377Z,102392.69
2022-12-17T19:36:42.134Z,102389.13
2022-12-17T19:39:11.932Z,102390.91
2022-12-17T19:41:39.581Z,102394.47
2022-12-17T19:44:09.159Z,102398.94
2022-12-17T19:46:37.041Z,102392.69
2022-12-17T19:49:04.905Z,102390.91
2022-12-17T19:51:33.474Z,102391.81
2022-12-17T19:54:08.395Z,102391.81
2022-12-17T19:56:37.438Z,102392.72
2022-12-17T19:59:07.112Z,102398.97
2022-12-17T20:01:36.347Z,102405.22
2022-12-17T20:04:04.559Z,102407.91
2022-12-17T20:06:34.746Z,102409.69
2022-12-17T20:09:04.985Z,102412.38
2022-12-17T20:11:36.340Z,102408.78
2022-12-17T20:14:08.928Z,102418.63
2022-12-17T20:16:38.113Z,102427.56
2022-12-17T20:19:07.806Z,102425.75
2022-12-17T20:21:35.535Z,102415.94
2022-12-17T20:24:04.886Z,102417.72
2022-12-17T20:26:32.815Z,102416.84
2022-12-17T20:29:00.616Z,102416.84
2022-12-17T20:31:28.471Z,102427.56
2022-12-17T20:33:56.183Z,102432.94
2022-12-17T20:36:23.944Z,102428.44
2022-12-17T20:38:51.609Z,102433.81
2022-12-17T20:41:21.362Z,102428.44
2022-12-17T20:43:49.592Z,102435.59
2022-12-17T20:46:17.701Z,102431.13
2022-12-17T20:48:45.499Z,102433.81
2022-12-17T20:51:14.278Z,102441.84
2022-12-17T20:53:42.318Z,102441.84
2022-12-17T20:56:11.547Z,102439.19
2022-12-17T20:58:41.489Z,102440.97
2022-12-17T21:01:10.389Z,102444.53
2022-12-17T21:03:38.602Z,102449.91
2022-12-17T21:06:08.753Z,102448.09
2022-12-17T21:08:37.025Z,102447.22
2022-12-17T21:11:05.383Z,102440.06
2022-12-17T21:13:33.104Z,102441.84
2022-12-17T21:16:03.522Z,102440.06
2022-12-17T21:18:32.190Z,102432.03
2022-12-17T21:21:01.437Z,102440.06
2022-12-17T21:23:29.481Z,102439.16
2022-12-17T21:26:00.848Z,102442.75
2022-12-17T21:28:29.537Z,102448.09
2022-12-17T21:30:57.326Z,102436.47
2022-12-17T21:33:26.492Z,102440.97
2022-12-17T21:35:58.831Z,102445.41
2022-12-17T21:38:26.723Z,102440.00
2022-12-17T21:40:54.469Z,102440.94
2022-12-17T21:43:22.454Z,102430.22
2022-12-17T21:45:50.301Z,102434.66
2022-12-17T21:48:18.009Z,102424.84
2022-12-17T21:50:47.079Z,102428.41
2022-12-17T21:53:15.362Z,102426.59
2022-12-17T21:55:43.645Z,102434.66
2022-12-17T21:58:11.593Z,102438.22
2022-12-17T22:00:39.293Z,102447.16
2022-12-17T22:03:07.031Z,102443.59
2022-12-17T22:05:36.928Z,102449.84
2022-12-17T22:08:06.626Z,102446.25
2022-12-17T22:10:47.466Z,102442.69
2022-12-17T22:13:33.432Z,102450.72
2022-12-17T22:16:01.280Z,102455.22
2022-12-17T22:18:28.935Z,102455.22
2022-12-17T22:21:00.086Z,102455.22
2022-12-17T22:23:29.214Z,102450.78
2022-12-17T22:25:57.254Z,102440.06
2022-12-17T22:28:34.942Z,102443.63
2022-12-17T22:31:22.226Z,102436.50
2022-12-17T22:35:22.953Z,102448.13
2022-12-17T22:38:45.478Z,102456.16
2022-12-17T22:43:26.358Z,102466.00
2022-12-17T22:44:49.643Z,102459.75
2022-12-17T22:45:32.337Z,102461.53
2022-12-17T22:48:00.172Z,102458.84
2022-12-17T22:50:27.870Z,102459.75
2022-12-17T22:53:02.822Z,102462.41
2022-12-17T22:55:32.556Z,102467.78
2022-12-17T22:58:00.808Z,102476.72
2022-12-17T23:00:33.754Z,102478.50
2022-12-17T23:03:01.930Z,102471.28
2022-12-17T23:05:30.050Z,102480.22
2022-12-17T23:07:58.292Z,102476.66
2022-12-17T23:10:26.919Z,102473.97
2022-12-17T23:12:56.575Z,102474.84
2022-12-17T23:15:26.246Z,102474.81
2022-12-17T23:17:55.674Z,102473.91
2022-12-17T23:20:23.597Z,102473.00
2022-12-17T23:22:51.324Z,102465.84
2022-12-17T23:25:18.964Z,102468.53
2022-12-17T23:27:46.997Z,102471.19
2022-12-17T23:30:16.922Z,102469.41
2022-12-17T23:32:45.024Z,102476.53
2022-12-17T23:35:13.093Z,102478.31
2022-12-17T23:37:41.606Z,102476.50
2022-12-17T23:40:09.938Z,102476.50
2022-12-17T23:42:37.702Z,102473.81
2022-12-17T23:45:06.332Z,102474.69
2022-12-17T23:47:35.713Z,102466.66
2022-12-17T23:50:03.332Z,102475.59
2022-12-17T23:52:31.486Z,102469.31
2022-12-17T23:54:59.051Z,102459.50
2022-12-17T23:57:26.776Z,102456.81
2022-12-17T23:59:54.452Z,102453.25
